Ignacio, CO

6:34 PM MDT on August 30, 2016 (GMT -0600)
Durango-La Plata County | | Change Station

Elev 6683 ft 37.14 °N, 107.76 °W | Updated 41 minutes ago

Clear
Clear
77 °F
Feels Like 77 °F
N
5
Wind Variable Wind from North

Today
High -- | Low -- °F
--% Chance of Precip.
Yesterday
High -- | Low -- °F
Precip. -- in
Pressure 30.05 in
Visibility 10.0 miles
Clouds Clear
Dew Point 39 °F
Humidity 25%
Rainfall 0.00 in
Snow Depth Not available.
6:40 AM 7:41 PM
Waning Crescent, 2% visible
METAR KDRO 302353Z AUTO 01004KT 10SM CLR 25/04 A3028 RMK AO2 SLP176 T02500039 10256 20211 56010
Pressure 30.05 in
Visibility 10.0 miles
Clouds Clear
Dew Point 39 °F
Humidity 25%
Rainfall 0.00 in
Snow Depth Not available.
6:40 AM 7:41 PM
Waning Crescent, 2% visible
METAR KDRO 302353Z AUTO 01004KT 10SM CLR 25/04 A3028 RMK AO2 SLP176 T02500039 10256 20211 56010

10-Day Weather Forecast

Almanac

Astronomy

Aug. 30, 2016 Rise Set
Actual Time
Civil Twilight
Nautical Twilight
Astronomical Twilight
Moon
Length of Visible Light
Length of Day
Tomorrow will be .
, % of the Moon is Illuminated

Today's Extremes

State Highs State Lows

Community

WunderPhotos

Upload Photos

1,935,963 photos uploaded!

WunderBlog® & News

Nearby

Air Quality

  Air Quality AQ Index Pollutant
Not available.

Snow Depth

Station Depth Elevation

Earthquake Activity

City Distance Mag. Time & Date
Minimum magnitude displayed is 2.5.

Coastal Water Temperatures

Place Temperature

Stations

Nearby Weather Stations

Station Location Temp. Windchill Dew Point Humidity Wind Precip. Elev Updated Type
                   

Watches & Warnings

There are currently no watches in effect.